sensor_id;sensor_type;location;lat;lon;timestamp;P1;durP1;ratioP1;P2;durP2;ratioP2
18499;SDS011;9379;52.134;11.576;2023-06-22T00:02:03;7.32;;;6.70;;
18499;SDS011;9379;52.134;11.576;2023-06-22T00:04:30;8.52;;;7.43;;
18499;SDS011;9379;52.134;11.576;2023-06-22T00:06:57;8.90;;;7.95;;
18499;SDS011;9379;52.134;11.576;2023-06-22T00:09:25;8.63;;;7.93;;
18499;SDS011;9379;52.134;11.576;2023-06-22T00:11:51;7.75;;;7.03;;
18499;SDS011;9379;52.134;11.576;2023-06-22T00:14:18;9.32;;;7.55;;
18499;SDS011;9379;52.134;11.576;2023-06-22T00:16:45;7.90;;;7.15;;
18499;SDS011;9379;52.134;11.576;2023-06-22T00:19:13;7.88;;;7.18;;
18499;SDS011;9379;52.134;11.576;2023-06-22T00:21:40;8.70;;;7.90;;
18499;SDS011;9379;52.134;11.576;2023-06-22T00:24:07;7.80;;;7.10;;
18499;SDS011;9379;52.134;11.576;2023-06-22T00:26:35;8.02;;;7.22;;
18499;SDS011;9379;52.134;11.576;2023-06-22T00:29:02;7.55;;;6.82;;
18499;SDS011;9379;52.134;11.576;2023-06-22T00:31:29;7.80;;;7.13;;
18499;SDS011;9379;52.134;11.576;2023-06-22T00:33:56;7.47;;;6.85;;
18499;SDS011;9379;52.134;11.576;2023-06-22T00:36:22;8.23;;;7.40;;
18499;SDS011;9379;52.134;11.576;2023-06-22T00:38:50;8.05;;;7.35;;
18499;SDS011;9379;52.134;11.576;2023-06-22T00:41:16;35.78;;;8.10;;
18499;SDS011;9379;52.134;11.576;2023-06-22T00:43:45;8.35;;;7.68;;
18499;SDS011;9379;52.134;11.576;2023-06-22T00:46:12;8.32;;;7.70;;
18499;SDS011;9379;52.134;11.576;2023-06-22T00:48:39;8.57;;;7.75;;
18499;SDS011;9379;52.134;11.576;2023-06-22T00:51:07;7.70;;;7.10;;
18499;SDS011;9379;52.134;11.576;2023-06-22T00:53:34;8.93;;;8.13;;
18499;SDS011;9379;52.134;11.576;2023-06-22T00:56:02;9.57;;;8.65;;
18499;SDS011;9379;52.134;11.576;2023-06-22T00:58:29;7.55;;;6.82;;
18499;SDS011;9379;52.134;11.576;2023-06-22T01:00:57;10.45;;;9.45;;
18499;SDS011;9379;52.134;11.576;2023-06-22T01:03:28;9.98;;;8.98;;
18499;SDS011;9379;52.134;11.576;2023-06-22T01:05:56;8.38;;;7.68;;
18499;SDS011;9379;52.134;11.576;2023-06-22T01:08:35;7.22;;;6.45;;
18499;SDS011;9379;52.134;11.576;2023-06-22T01:11:09;8.57;;;7.80;;
18499;SDS011;9379;52.134;11.576;2023-06-22T01:13:40;9.60;;;8.65;;
18499;SDS011;9379;52.134;11.576;2023-06-22T01:16:26;10.60;;;8.95;;
18499;SDS011;9379;52.134;11.576;2023-06-22T01:18:57;10.00;;;7.75;;
18499;SDS011;9379;52.134;11.576;2023-06-22T01:21:40;8.02;;;7.32;;
18499;SDS011;9379;52.134;11.576;2023-06-22T01:24:10;9.93;;;6.95;;
18499;SDS011;9379;52.134;11.576;2023-06-22T01:26:48;8.57;;;7.78;;
18499;SDS011;9379;52.134;11.576;2023-06-22T01:29:25;8.00;;;7.22;;
18499;SDS011;9379;52.134;11.576;2023-06-22T01:31:53;9.38;;;8.48;;
18499;SDS011;9379;52.134;11.576;2023-06-22T01:34:22;15.32;;;7.65;;
18499;SDS011;9379;52.134;11.576;2023-06-22T01:36:50;8.50;;;7.70;;
18499;SDS011;9379;52.134;11.576;2023-06-22T01:39:18;8.10;;;7.38;;
18499;SDS011;9379;52.134;11.576;2023-06-22T01:41:47;8.95;;;8.15;;
18499;SDS011;9379;52.134;11.576;2023-06-22T01:44:14;8.60;;;7.68;;
18499;SDS011;9379;52.134;11.576;2023-06-22T01:46:43;14.10;;;9.32;;
18499;SDS011;9379;52.134;11.576;2023-06-22T01:49:11;9.65;;;8.38;;
18499;SDS011;9379;52.134;11.576;2023-06-22T01:51:39;10.35;;;9.05;;
18499;SDS011;9379;52.134;11.576;2023-06-22T01:54:06;9.00;;;8.30;;
18499;SDS011;9379;52.134;11.576;2023-06-22T01:56:33;10.02;;;8.25;;
18499;SDS011;9379;52.134;11.576;2023-06-22T01:59:01;9.95;;;8.98;;
18499;SDS011;9379;52.134;11.576;2023-06-22T02:01:37;7.93;;;7.22;;
18499;SDS011;9379;52.134;11.576;2023-06-22T02:04:11;7.88;;;7.28;;
18499;SDS011;9379;52.134;11.576;2023-06-22T02:06:42;8.75;;;8.05;;
18499;SDS011;9379;52.134;11.576;2023-06-22T02:09:12;9.98;;;9.13;;
18499;SDS011;9379;52.134;11.576;2023-06-22T02:11:44;9.55;;;8.27;;
18499;SDS011;9379;52.134;11.576;2023-06-22T02:14:12;9.02;;;8.23;;
18499;SDS011;9379;52.134;11.576;2023-06-22T02:16:40;9.15;;;8.35;;
18499;SDS011;9379;52.134;11.576;2023-06-22T02:19:09;8.00;;;7.28;;
18499;SDS011;9379;52.134;11.576;2023-06-22T02:21:36;9.05;;;8.15;;
18499;SDS011;9379;52.134;11.576;2023-06-22T02:24:03;11.48;;;10.35;;
18499;SDS011;9379;52.134;11.576;2023-06-22T02:26:30;11.40;;;7.50;;
18499;SDS011;9379;52.134;11.576;2023-06-22T02:28:59;10.45;;;9.55;;
18499;SDS011;9379;52.134;11.576;2023-06-22T02:31:26;9.90;;;8.93;;
18499;SDS011;9379;52.134;11.576;2023-06-22T02:33:55;8.65;;;7.95;;
18499;SDS011;9379;52.134;11.576;2023-06-22T02:36:24;9.25;;;8.35;;
18499;SDS011;9379;52.134;11.576;2023-06-22T02:38:51;10.63;;;9.63;;
18499;SDS011;9379;52.134;11.576;2023-06-22T02:41:19;9.15;;;8.23;;
18499;SDS011;9379;52.134;11.576;2023-06-22T02:43:46;9.77;;;8.90;;
18499;SDS011;9379;52.134;11.576;2023-06-22T02:46:13;9.43;;;8.52;;
18499;SDS011;9379;52.134;11.576;2023-06-22T02:48:40;10.80;;;8.73;;
18499;SDS011;9379;52.134;11.576;2023-06-22T02:51:07;9.73;;;8.80;;
18499;SDS011;9379;52.134;11.576;2023-06-22T02:53:36;8.90;;;8.10;;
18499;SDS011;9379;52.134;11.576;2023-06-22T02:56:02;9.20;;;8.32;;
18499;SDS011;9379;52.134;11.576;2023-06-22T02:58:30;9.40;;;8.45;;
18499;SDS011;9379;52.134;11.576;2023-06-22T03:01:03;6.70;;;6.20;;
18499;SDS011;9379;52.134;11.576;2023-06-22T03:03:30;10.02;;;9.18;;
18499;SDS011;9379;52.134;11.576;2023-06-22T03:05:57;10.00;;;9.10;;
18499;SDS011;9379;52.134;11.576;2023-06-22T03:08:26;9.23;;;8.38;;
18499;SDS011;9379;52.134;11.576;2023-06-22T03:10:54;8.93;;;8.02;;
18499;SDS011;9379;52.134;11.576;2023-06-22T03:13:21;8.75;;;8.05;;
18499;SDS011;9379;52.134;11.576;2023-06-22T03:15:48;9.23;;;8.43;;
18499;SDS011;9379;52.134;11.576;2023-06-22T03:18:15;11.32;;;9.88;;
18499;SDS011;9379;52.134;11.576;2023-06-22T03:20:42;8.30;;;7.50;;
18499;SDS011;9379;52.134;11.576;2023-06-22T03:23:08;11.13;;;7.70;;
18499;SDS011;9379;52.134;11.576;2023-06-22T03:25:35;11.75;;;10.18;;
18499;SDS011;9379;52.134;11.576;2023-06-22T03:28:03;9.02;;;8.23;;
18499;SDS011;9379;52.134;11.576;2023-06-22T03:30:30;11.05;;;10.05;;
18499;SDS011;9379;52.134;11.576;2023-06-22T03:32:57;10.88;;;8.45;;
18499;SDS011;9379;52.134;11.576;2023-06-22T03:35:24;23.83;;;9.30;;
18499;SDS011;9379;52.134;11.576;2023-06-22T03:37:50;9.00;;;8.13;;
18499;SDS011;9379;52.134;11.576;2023-06-22T03:40:17;9.05;;;8.15;;
18499;SDS011;9379;52.134;11.576;2023-06-22T03:42:45;12.35;;;9.90;;
18499;SDS011;9379;52.134;11.576;2023-06-22T03:45:13;9.07;;;8.23;;
18499;SDS011;9379;52.134;11.576;2023-06-22T03:47:40;9.32;;;8.38;;
18499;SDS011;9379;52.134;11.576;2023-06-22T03:50:07;10.98;;;8.68;;
18499;SDS011;9379;52.134;11.576;2023-06-22T03:52:34;8.18;;;7.47;;
18499;SDS011;9379;52.134;11.576;2023-06-22T03:55:01;8.70;;;8.00;;
18499;SDS011;9379;52.134;11.576;2023-06-22T03:57:31;8.20;;;7.43;;
18499;SDS011;9379;52.134;11.576;2023-06-22T03:59:58;7.38;;;6.68;;
18499;SDS011;9379;52.134;11.576;2023-06-22T04:02:27;7.00;;;6.40;;
18499;SDS011;9379;52.134;11.576;2023-06-22T04:04:54;6.78;;;6.18;;
18499;SDS011;9379;52.134;11.576;2023-06-22T04:07:21;7.05;;;6.43;;
18499;SDS011;9379;52.134;11.576;2023-06-22T04:09:48;6.25;;;5.65;;
18499;SDS011;9379;52.134;11.576;2023-06-22T04:12:14;5.75;;;5.32;;
18499;SDS011;9379;52.134;11.576;2023-06-22T04:14:41;4.85;;;4.35;;
18499;SDS011;9379;52.134;11.576;2023-06-22T04:17:08;6.30;;;5.72;;
18499;SDS011;9379;52.134;11.576;2023-06-22T04:19:36;5.57;;;5.07;;
18499;SDS011;9379;52.134;11.576;2023-06-22T04:22:03;6.97;;;6.18;;
18499;SDS011;9379;52.134;11.576;2023-06-22T04:24:32;6.38;;;5.80;;
18499;SDS011;9379;52.134;11.576;2023-06-22T04:26:59;6.50;;;6.00;;
18499;SDS011;9379;52.134;11.576;2023-06-22T04:29:27;5.07;;;4.57;;
18499;SDS011;9379;52.134;11.576;2023-06-22T04:31:55;5.47;;;4.93;;
18499;SDS011;9379;52.134;11.576;2023-06-22T04:34:23;9.57;;;6.32;;
18499;SDS011;9379;52.134;11.576;2023-06-22T04:36:52;5.30;;;4.65;;
18499;SDS011;9379;52.134;11.576;2023-06-22T04:39:19;5.72;;;5.13;;
18499;SDS011;9379;52.134;11.576;2023-06-22T04:41:46;5.00;;;4.50;;
18499;SDS011;9379;52.134;11.576;2023-06-22T04:44:14;5.20;;;4.70;;
18499;SDS011;9379;52.134;11.576;2023-06-22T04:46:49;5.25;;;4.70;;
18499;SDS011;9379;52.134;11.576;2023-06-22T04:49:19;6.82;;;6.03;;
18499;SDS011;9379;52.134;11.576;2023-06-22T04:51:47;5.75;;;5.10;;
18499;SDS011;9379;52.134;11.576;2023-06-22T04:54:15;6.93;;;4.93;;
18499;SDS011;9379;52.134;11.576;2023-06-22T04:56:42;7.78;;;6.82;;
18499;SDS011;9379;52.134;11.576;2023-06-22T04:59:11;6.50;;;6.00;;
18499;SDS011;9379;52.134;11.576;2023-06-22T05:01:38;6.75;;;6.22;;
18499;SDS011;9379;52.134;11.576;2023-06-22T05:04:05;5.53;;;5.13;;
18499;SDS011;9379;52.134;11.576;2023-06-22T05:06:32;5.47;;;4.97;;
18499;SDS011;9379;52.134;11.576;2023-06-22T05:08:59;5.38;;;4.95;;
18499;SDS011;9379;52.134;11.576;2023-06-22T05:11:27;6.22;;;5.72;;
18499;SDS011;9379;52.134;11.576;2023-06-22T05:13:54;5.80;;;5.35;;
18499;SDS011;9379;52.134;11.576;2023-06-22T05:16:22;8.00;;;7.20;;
18499;SDS011;9379;52.134;11.576;2023-06-22T05:18:51;6.45;;;5.45;;
18499;SDS011;9379;52.134;11.576;2023-06-22T05:21:20;7.10;;;6.50;;
18499;SDS011;9379;52.134;11.576;2023-06-22T05:23:48;6.32;;;5.78;;
18499;SDS011;9379;52.134;11.576;2023-06-22T05:26:15;8.73;;;6.53;;
18499;SDS011;9379;52.134;11.576;2023-06-22T05:28:43;5.63;;;5.22;;
18499;SDS011;9379;52.134;11.576;2023-06-22T05:31:11;6.70;;;6.00;;
18499;SDS011;9379;52.134;11.576;2023-06-22T05:33:38;6.85;;;6.25;;
18499;SDS011;9379;52.134;11.576;2023-06-22T05:36:05;8.82;;;6.22;;
18499;SDS011;9379;52.134;11.576;2023-06-22T05:38:32;5.10;;;4.70;;
18499;SDS011;9379;52.134;11.576;2023-06-22T05:40:59;7.57;;;6.72;;
18499;SDS011;9379;52.134;11.576;2023-06-22T05:43:26;8.20;;;7.30;;
18499;SDS011;9379;52.134;11.576;2023-06-22T05:45:54;7.00;;;6.30;;
18499;SDS011;9379;52.134;11.576;2023-06-22T05:48:21;7.85;;;7.15;;
18499;SDS011;9379;52.134;11.576;2023-06-22T05:50:48;7.82;;;6.85;;
18499;SDS011;9379;52.134;11.576;2023-06-22T05:53:14;6.45;;;5.88;;
18499;SDS011;9379;52.134;11.576;2023-06-22T05:55:41;5.50;;;5.00;;
18499;SDS011;9379;52.134;11.576;2023-06-22T05:58:08;5.30;;;4.88;;
18499;SDS011;9379;52.134;11.576;2023-06-22T06:00:35;5.75;;;5.32;;
18499;SDS011;9379;52.134;11.576;2023-06-22T06:03:03;7.57;;;6.72;;
18499;SDS011;9379;52.134;11.576;2023-06-22T06:05:30;6.13;;;5.25;;
18499;SDS011;9379;52.134;11.576;2023-06-22T06:07:57;6.75;;;6.22;;
18499;SDS011;9379;52.134;11.576;2023-06-22T06:10:24;7.78;;;7.15;;
18499;SDS011;9379;52.134;11.576;2023-06-22T06:12:51;8.35;;;7.60;;
18499;SDS011;9379;52.134;11.576;2023-06-22T06:15:18;5.75;;;4.82;;
18499;SDS011;9379;52.134;11.576;2023-06-22T06:17:45;7.65;;;6.20;;
18499;SDS011;9379;52.134;11.576;2023-06-22T06:20:14;5.80;;;5.30;;
18499;SDS011;9379;52.134;11.576;2023-06-22T06:22:41;5.82;;;5.32;;
18499;SDS011;9379;52.134;11.576;2023-06-22T06:25:09;6.45;;;5.95;;
18499;SDS011;9379;52.134;11.576;2023-06-22T06:27:40;7.68;;;6.93;;
18499;SDS011;9379;52.134;11.576;2023-06-22T06:30:08;8.15;;;7.35;;
18499;SDS011;9379;52.134;11.576;2023-06-22T06:32:35;7.82;;;7.20;;
18499;SDS011;9379;52.134;11.576;2023-06-22T06:35:02;7.30;;;6.70;;
18499;SDS011;9379;52.134;11.576;2023-06-22T06:37:30;9.88;;;8.80;;
18499;SDS011;9379;52.134;11.576;2023-06-22T06:39:57;6.47;;;5.95;;
18499;SDS011;9379;52.134;11.576;2023-06-22T06:42:23;7.32;;;6.63;;
18499;SDS011;9379;52.134;11.576;2023-06-22T06:44:50;8.50;;;7.80;;
18499;SDS011;9379;52.134;11.576;2023-06-22T06:47:17;8.18;;;7.47;;
18499;SDS011;9379;52.134;11.576;2023-06-22T06:49:43;8.30;;;7.60;;
18499;SDS011;9379;52.134;11.576;2023-06-22T06:52:10;10.05;;;8.60;;
18499;SDS011;9379;52.134;11.576;2023-06-22T06:54:38;7.82;;;7.10;;
18499;SDS011;9379;52.134;11.576;2023-06-22T06:57:07;7.35;;;6.68;;
18499;SDS011;9379;52.134;11.576;2023-06-22T06:59:35;8.70;;;8.00;;
18499;SDS011;9379;52.134;11.576;2023-06-22T07:02:02;7.10;;;6.50;;
18499;SDS011;9379;52.134;11.576;2023-06-22T07:04:29;6.63;;;6.05;;
18499;SDS011;9379;52.134;11.576;2023-06-22T07:06:56;8.63;;;6.88;;
18499;SDS011;9379;52.134;11.576;2023-06-22T07:09:23;10.82;;;6.70;;
18499;SDS011;9379;52.134;11.576;2023-06-22T07:11:51;8.85;;;7.95;;
18499;SDS011;9379;52.134;11.576;2023-06-22T07:14:18;8.98;;;8.10;;
18499;SDS011;9379;52.134;11.576;2023-06-22T07:16:44;8.82;;;7.88;;
18499;SDS011;9379;52.134;11.576;2023-06-22T07:19:11;9.15;;;8.55;;
18499;SDS011;9379;52.134;11.576;2023-06-22T07:21:38;9.15;;;8.45;;
18499;SDS011;9379;52.134;11.576;2023-06-22T07:24:06;9.50;;;8.60;;
18499;SDS011;9379;52.134;11.576;2023-06-22T07:26:33;10.80;;;7.32;;
18499;SDS011;9379;52.134;11.576;2023-06-22T07:29:01;10.65;;;9.55;;
18499;SDS011;9379;52.134;11.576;2023-06-22T07:31:29;8.73;;;7.93;;
18499;SDS011;9379;52.134;11.576;2023-06-22T07:33:56;10.20;;;8.40;;
18499;SDS011;9379;52.134;11.576;2023-06-22T07:36:22;9.55;;;8.70;;
18499;SDS011;9379;52.134;11.576;2023-06-22T07:38:49;10.52;;;9.63;;
18499;SDS011;9379;52.134;11.576;2023-06-22T07:41:16;9.57;;;8.43;;
18499;SDS011;9379;52.134;11.576;2023-06-22T07:43:44;10.63;;;8.55;;
18499;SDS011;9379;52.134;11.576;2023-06-22T07:46:12;8.57;;;7.88;;
18499;SDS011;9379;52.134;11.576;2023-06-22T07:48:39;11.15;;;9.63;;
18499;SDS011;9379;52.134;11.576;2023-06-22T07:51:07;8.77;;;7.93;;
18499;SDS011;9379;52.134;11.576;2023-06-22T07:53:34;9.73;;;8.93;;
18499;SDS011;9379;52.134;11.576;2023-06-22T07:56:01;8.80;;;8.10;;
18499;SDS011;9379;52.134;11.576;2023-06-22T07:58:33;7.50;;;6.80;;
18499;SDS011;9379;52.134;11.576;2023-06-22T08:01:00;8.18;;;7.50;;
18499;SDS011;9379;52.134;11.576;2023-06-22T08:03:28;9.45;;;8.55;;
18499;SDS011;9379;52.134;11.576;2023-06-22T08:05:55;8.93;;;8.07;;
18499;SDS011;9379;52.134;11.576;2023-06-22T08:08:21;8.77;;;8.07;;
18499;SDS011;9379;52.134;11.576;2023-06-22T08:10:48;8.13;;;7.53;;
18499;SDS011;9379;52.134;11.576;2023-06-22T08:13:15;9.15;;;8.23;;
18499;SDS011;9379;52.134;11.576;2023-06-22T08:15:42;8.43;;;7.53;;
18499;SDS011;9379;52.134;11.576;2023-06-22T08:18:08;8.02;;;7.22;;
18499;SDS011;9379;52.134;11.576;2023-06-22T08:20:37;8.15;;;7.45;;
18499;SDS011;9379;52.134;11.576;2023-06-22T08:23:03;8.30;;;7.50;;
18499;SDS011;9379;52.134;11.576;2023-06-22T08:25:31;8.05;;;7.35;;
18499;SDS011;9379;52.134;11.576;2023-06-22T08:27:57;9.32;;;8.55;;
18499;SDS011;9379;52.134;11.576;2023-06-22T08:30:24;10.77;;;8.10;;
18499;SDS011;9379;52.134;11.576;2023-06-22T08:32:51;8.00;;;7.22;;
18499;SDS011;9379;52.134;11.576;2023-06-22T08:35:18;8.48;;;7.78;;
18499;SDS011;9379;52.134;11.576;2023-06-22T08:37:47;8.15;;;7.38;;
18499;SDS011;9379;52.134;11.576;2023-06-22T08:40:17;9.02;;;8.40;;
18499;SDS011;9379;52.134;11.576;2023-06-22T08:42:46;10.18;;;9.13;;
18499;SDS011;9379;52.134;11.576;2023-06-22T08:45:13;10.88;;;9.82;;
18499;SDS011;9379;52.134;11.576;2023-06-22T08:47:40;8.90;;;8.10;;
18499;SDS011;9379;52.134;11.576;2023-06-22T08:50:08;7.65;;;7.00;;
18499;SDS011;9379;52.134;11.576;2023-06-22T08:52:35;8.77;;;8.00;;
18499;SDS011;9379;52.134;11.576;2023-06-22T08:55:04;8.32;;;7.63;;
18499;SDS011;9379;52.134;11.576;2023-06-22T08:57:31;9.93;;;9.13;;
18499;SDS011;9379;52.134;11.576;2023-06-22T08:59:58;10.65;;;9.80;;
18499;SDS011;9379;52.134;11.576;2023-06-22T09:02:26;9.60;;;8.60;;
18499;SDS011;9379;52.134;11.576;2023-06-22T09:04:56;14.50;;;7.90;;
18499;SDS011;9379;52.134;11.576;2023-06-22T09:07:23;8.95;;;8.18;;
18499;SDS011;9379;52.134;11.576;2023-06-22T09:09:51;7.78;;;7.18;;
18499;SDS011;9379;52.134;11.576;2023-06-22T09:12:19;8.98;;;8.27;;
18499;SDS011;9379;52.134;11.576;2023-06-22T09:14:50;9.38;;;8.13;;
18499;SDS011;9379;52.134;11.576;2023-06-22T09:17:17;9.98;;;9.10;;
18499;SDS011;9379;52.134;11.576;2023-06-22T09:19:44;7.95;;;7.25;;
18499;SDS011;9379;52.134;11.576;2023-06-22T09:22:12;13.07;;;9.00;;
18499;SDS011;9379;52.134;11.576;2023-06-22T09:24:39;11.77;;;10.57;;
18499;SDS011;9379;52.134;11.576;2023-06-22T09:27:06;10.32;;;9.50;;
18499;SDS011;9379;52.134;11.576;2023-06-22T09:29:34;9.15;;;8.35;;
18499;SDS011;9379;52.134;11.576;2023-06-22T09:32:01;8.82;;;8.07;;
18499;SDS011;9379;52.134;11.576;2023-06-22T09:34:28;10.55;;;9.45;;
18499;SDS011;9379;52.134;11.576;2023-06-22T09:36:56;11.57;;;10.52;;
18499;SDS011;9379;52.134;11.576;2023-06-22T09:39:25;9.85;;;9.00;;
18499;SDS011;9379;52.134;11.576;2023-06-22T09:41:52;15.35;;;10.85;;
18499;SDS011;9379;52.134;11.576;2023-06-22T09:44:19;11.20;;;9.65;;
18499;SDS011;9379;52.134;11.576;2023-06-22T09:46:47;9.32;;;8.52;;
18499;SDS011;9379;52.134;11.576;2023-06-22T09:49:14;12.55;;;11.25;;
18499;SDS011;9379;52.134;11.576;2023-06-22T09:51:40;10.27;;;9.30;;
18499;SDS011;9379;52.134;11.576;2023-06-22T09:54:07;9.35;;;8.57;;
18499;SDS011;9379;52.134;11.576;2023-06-22T09:56:34;10.02;;;9.20;;
18499;SDS011;9379;52.134;11.576;2023-06-22T09:59:02;9.40;;;8.57;;
18499;SDS011;9379;52.134;11.576;2023-06-22T10:01:29;10.23;;;9.23;;
18499;SDS011;9379;52.134;11.576;2023-06-22T10:03:57;8.50;;;7.80;;
18499;SDS011;9379;52.134;11.576;2023-06-22T10:06:24;10.05;;;9.07;;
18499;SDS011;9379;52.134;11.576;2023-06-22T10:08:51;8.98;;;8.27;;
18499;SDS011;9379;52.134;11.576;2023-06-22T10:11:17;8.95;;;8.15;;
18499;SDS011;9379;52.134;11.576;2023-06-22T10:13:44;11.23;;;9.75;;
18499;SDS011;9379;52.134;11.576;2023-06-22T10:16:11;11.43;;;10.25;;
18499;SDS011;9379;52.134;11.576;2023-06-22T10:18:38;10.73;;;9.82;;
18499;SDS011;9379;52.134;11.576;2023-06-22T10:21:06;9.00;;;8.25;;
18499;SDS011;9379;52.134;11.576;2023-06-22T10:23:32;7.63;;;7.00;;
18499;SDS011;9379;52.134;11.576;2023-06-22T10:25:59;8.20;;;7.53;;
18499;SDS011;9379;52.134;11.576;2023-06-22T10:28:26;11.25;;;10.27;;
18499;SDS011;9379;52.134;11.576;2023-06-22T10:30:53;9.45;;;8.55;;
18499;SDS011;9379;52.134;11.576;2023-06-22T10:33:19;11.45;;;10.45;;
18499;SDS011;9379;52.134;11.576;2023-06-22T10:35:46;10.55;;;9.65;;
18499;SDS011;9379;52.134;11.576;2023-06-22T10:38:15;13.55;;;9.18;;
18499;SDS011;9379;52.134;11.576;2023-06-22T10:40:41;8.77;;;8.02;;
18499;SDS011;9379;52.134;11.576;2023-06-22T10:43:10;9.13;;;8.38;;
18499;SDS011;9379;52.134;11.576;2023-06-22T10:45:37;8.68;;;7.90;;
18499;SDS011;9379;52.134;11.576;2023-06-22T10:48:04;10.55;;;9.65;;
18499;SDS011;9379;52.134;11.576;2023-06-22T10:50:31;14.77;;;8.98;;
18499;SDS011;9379;52.134;11.576;2023-06-22T10:52:58;8.50;;;7.75;;
18499;SDS011;9379;52.134;11.576;2023-06-22T10:55:26;12.32;;;8.18;;
18499;SDS011;9379;52.134;11.576;2023-06-22T10:57:53;9.10;;;8.30;;
18499;SDS011;9379;52.134;11.576;2023-06-22T11:00:20;8.48;;;7.80;;
18499;SDS011;9379;52.134;11.576;2023-06-22T11:02:47;7.80;;;7.20;;
18499;SDS011;9379;52.134;11.576;2023-06-22T11:05:13;10.75;;;9.80;;
18499;SDS011;9379;52.134;11.576;2023-06-22T11:07:41;8.75;;;7.97;;
18499;SDS011;9379;52.134;11.576;2023-06-22T11:10:09;8.30;;;7.63;;
18499;SDS011;9379;52.134;11.576;2023-06-22T11:12:37;8.63;;;7.82;;
18499;SDS011;9379;52.134;11.576;2023-06-22T11:15:05;12.40;;;11.15;;
18499;SDS011;9379;52.134;11.576;2023-06-22T11:17:32;10.45;;;9.52;;
18499;SDS011;9379;52.134;11.576;2023-06-22T11:19:59;10.63;;;9.63;;
18499;SDS011;9379;52.134;11.576;2023-06-22T11:22:26;11.55;;;10.55;;
18499;SDS011;9379;52.134;11.576;2023-06-22T11:24:53;12.90;;;11.55;;
18499;SDS011;9379;52.134;11.576;2023-06-22T11:27:20;10.27;;;9.48;;
18499;SDS011;9379;52.134;11.576;2023-06-22T11:29:48;9.55;;;8.85;;
18499;SDS011;9379;52.134;11.576;2023-06-22T11:32:15;9.10;;;8.40;;
18499;SDS011;9379;52.134;11.576;2023-06-22T11:34:41;9.35;;;8.65;;
18499;SDS011;9379;52.134;11.576;2023-06-22T11:37:08;12.98;;;9.88;;
18499;SDS011;9379;52.134;11.576;2023-06-22T11:39:35;10.75;;;9.88;;
18499;SDS011;9379;52.134;11.576;2023-06-22T11:42:02;10.38;;;9.40;;
18499;SDS011;9379;52.134;11.576;2023-06-22T11:44:29;10.90;;;9.93;;
18499;SDS011;9379;52.134;11.576;2023-06-22T11:46:57;10.55;;;9.75;;
18499;SDS011;9379;52.134;11.576;2023-06-22T11:49:25;8.38;;;7.68;;
18499;SDS011;9379;52.134;11.576;2023-06-22T11:51:52;9.65;;;8.98;;
18499;SDS011;9379;52.134;11.576;2023-06-22T11:54:19;10.35;;;9.45;;
18499;SDS011;9379;52.134;11.576;2023-06-22T11:56:46;9.43;;;8.63;;
18499;SDS011;9379;52.134;11.576;2023-06-22T11:59:15;8.45;;;7.70;;
18499;SDS011;9379;52.134;11.576;2023-06-22T12:01:41;8.90;;;8.20;;
18499;SDS011;9379;52.134;11.576;2023-06-22T12:04:09;10.40;;;9.45;;
18499;SDS011;9379;52.134;11.576;2023-06-22T12:06:37;9.95;;;9.18;;
18499;SDS011;9379;52.134;11.576;2023-06-22T12:09:07;10.45;;;9.55;;
18499;SDS011;9379;52.134;11.576;2023-06-22T12:11:34;9.77;;;8.70;;
18499;SDS011;9379;52.134;11.576;2023-06-22T12:14:00;9.90;;;8.98;;
18499;SDS011;9379;52.134;11.576;2023-06-22T12:16:27;10.13;;;9.23;;
18499;SDS011;9379;52.134;11.576;2023-06-22T12:18:54;10.30;;;9.48;;
18499;SDS011;9379;52.134;11.576;2023-06-22T12:21:22;9.93;;;9.13;;
18499;SDS011;9379;52.134;11.576;2023-06-22T12:23:49;12.07;;;11.07;;
18499;SDS011;9379;52.134;11.576;2023-06-22T12:26:16;11.32;;;10.18;;
18499;SDS011;9379;52.134;11.576;2023-06-22T12:28:42;11.23;;;10.32;;
18499;SDS011;9379;52.134;11.576;2023-06-22T12:31:09;10.18;;;9.35;;
18499;SDS011;9379;52.134;11.576;2023-06-22T12:33:36;8.70;;;7.40;;
18499;SDS011;9379;52.134;11.576;2023-06-22T12:36:03;9.63;;;8.82;;
18499;SDS011;9379;52.134;11.576;2023-06-22T12:38:31;10.70;;;9.70;;
18499;SDS011;9379;52.134;11.576;2023-06-22T12:40:58;8.90;;;8.20;;
18499;SDS011;9379;52.134;11.576;2023-06-22T12:43:25;9.02;;;8.23;;
18499;SDS011;9379;52.134;11.576;2023-06-22T12:45:52;11.85;;;10.85;;
18499;SDS011;9379;52.134;11.576;2023-06-22T12:48:19;11.05;;;10.25;;
18499;SDS011;9379;52.134;11.576;2023-06-22T12:50:48;10.68;;;9.77;;
18499;SDS011;9379;52.134;11.576;2023-06-22T12:53:15;8.35;;;7.75;;
18499;SDS011;9379;52.134;11.576;2023-06-22T12:55:43;8.15;;;7.53;;
18499;SDS011;9379;52.134;11.576;2023-06-22T12:58:10;11.23;;;10.15;;
18499;SDS011;9379;52.134;11.576;2023-06-22T13:00:37;9.07;;;8.27;;
18499;SDS011;9379;52.134;11.576;2023-06-22T13:03:05;9.77;;;8.98;;
18499;SDS011;9379;52.134;11.576;2023-06-22T13:05:31;8.93;;;8.32;;
18499;SDS011;9379;52.134;11.576;2023-06-22T13:08:00;8.07;;;7.47;;
18499;SDS011;9379;52.134;11.576;2023-06-22T13:10:26;11.18;;;10.27;;
18499;SDS011;9379;52.134;11.576;2023-06-22T13:12:54;9.23;;;8.60;;
18499;SDS011;9379;52.134;11.576;2023-06-22T13:15:25;8.55;;;7.95;;
18499;SDS011;9379;52.134;11.576;2023-06-22T13:17:52;8.15;;;7.55;;
18499;SDS011;9379;52.134;11.576;2023-06-22T13:20:19;9.10;;;8.40;;
18499;SDS011;9379;52.134;11.576;2023-06-22T13:22:46;9.73;;;8.82;;
18499;SDS011;9379;52.134;11.576;2023-06-22T13:25:13;8.98;;;8.35;;
18499;SDS011;9379;52.134;11.576;2023-06-22T13:27:44;13.50;;;12.25;;
18499;SDS011;9379;52.134;11.576;2023-06-22T13:30:13;11.18;;;10.38;;
18499;SDS011;9379;52.134;11.576;2023-06-22T13:32:40;8.68;;;7.97;;
18499;SDS011;9379;52.134;11.576;2023-06-22T13:35:10;11.75;;;10.82;;
18499;SDS011;9379;52.134;11.576;2023-06-22T13:37:38;9.98;;;9.18;;
18499;SDS011;9379;52.134;11.576;2023-06-22T13:40:05;9.75;;;8.23;;
18499;SDS011;9379;52.134;11.576;2023-06-22T13:42:33;10.18;;;9.27;;
18499;SDS011;9379;52.134;11.576;2023-06-22T13:45:00;11.60;;;10.50;;
18499;SDS011;9379;52.134;11.576;2023-06-22T13:47:28;10.35;;;9.48;;
18499;SDS011;9379;52.134;11.576;2023-06-22T13:49:56;9.48;;;8.57;;
18499;SDS011;9379;52.134;11.576;2023-06-22T13:52:23;10.95;;;10.05;;
18499;SDS011;9379;52.134;11.576;2023-06-22T13:54:50;10.80;;;9.85;;
18499;SDS011;9379;52.134;11.576;2023-06-22T13:57:17;11.48;;;10.43;;
18499;SDS011;9379;52.134;11.576;2023-06-22T13:59:44;9.30;;;8.50;;
18499;SDS011;9379;52.134;11.576;2023-06-22T14:02:10;11.60;;;10.55;;
18499;SDS011;9379;52.134;11.576;2023-06-22T14:04:39;10.48;;;8.90;;
18499;SDS011;9379;52.134;11.576;2023-06-22T14:07:05;10.38;;;9.50;;
18499;SDS011;9379;52.134;11.576;2023-06-22T14:09:32;10.13;;;9.23;;
18499;SDS011;9379;52.134;11.576;2023-06-22T14:12:02;10.68;;;9.88;;
18499;SDS011;9379;52.134;11.576;2023-06-22T14:14:30;9.10;;;8.20;;
18499;SDS011;9379;52.134;11.576;2023-06-22T14:16:58;8.75;;;8.05;;
18499;SDS011;9379;52.134;11.576;2023-06-22T14:19:24;10.13;;;9.15;;
18499;SDS011;9379;52.134;11.576;2023-06-22T14:21:52;10.68;;;9.73;;
18499;SDS011;9379;52.134;11.576;2023-06-22T14:24:19;10.93;;;9.82;;
18499;SDS011;9379;52.134;11.576;2023-06-22T14:26:46;9.68;;;8.88;;
18499;SDS011;9379;52.134;11.576;2023-06-22T14:29:13;9.73;;;8.88;;
18499;SDS011;9379;52.134;11.576;2023-06-22T14:31:40;9.18;;;8.38;;
18499;SDS011;9379;52.134;11.576;2023-06-22T14:34:07;9.30;;;8.50;;
18499;SDS011;9379;52.134;11.576;2023-06-22T14:36:33;11.38;;;10.35;;
18499;SDS011;9379;52.134;11.576;2023-06-22T14:39:01;9.18;;;8.38;;
18499;SDS011;9379;52.134;11.576;2023-06-22T14:41:29;8.63;;;8.00;;
